sensor_id;sensor_type;location;lat;lon;timestamp;pressure;altitude;pressure_sealevel;temperature;humidity
70133;BME280;57495;49.922;7.966;2022-11-21T00:00:24;98982.66;;;4.91;100.00
70133;BME280;57495;49.922;7.966;2022-11-21T00:02:26;98990.06;;;4.97;100.00
70133;BME280;57495;49.922;7.966;2022-11-21T00:04:27;98992.28;;;4.92;100.00
70133;BME280;57495;49.922;7.966;2022-11-21T00:06:30;98990.53;;;4.81;100.00
70133;BME280;57495;49.922;7.966;2022-11-21T00:08:31;98986.41;;;4.88;100.00
70133;BME280;57495;49.922;7.966;2022-11-21T00:10:35;98992.03;;;4.95;100.00
70133;BME280;57495;49.922;7.966;2022-11-21T00:12:37;98988.38;;;4.96;100.00
70133;BME280;57495;49.922;7.966;2022-11-21T00:14:38;98985.72;;;4.96;100.00
70133;BME280;57495;49.922;7.966;2022-11-21T00:16:40;98990.91;;;4.97;100.00
70133;BME280;57495;49.922;7.966;2022-11-21T00:18:42;98993.16;;;5.02;100.00
70133;BME280;57495;49.922;7.966;2022-11-21T00:20:44;98986.50;;;5.08;100.00
70133;BME280;57495;49.922;7.966;2022-11-21T00:22:47;98998.25;;;5.15;100.00
70133;BME280;57495;49.922;7.966;2022-11-21T00:24:48;98989.31;;;5.16;100.00
70133;BME280;57495;49.922;7.966;2022-11-21T00:26:50;98991.69;;;5.19;100.00
70133;BME280;57495;49.922;7.966;2022-11-21T00:28:51;98987.09;;;5.21;100.00
70133;BME280;57495;49.922;7.966;2022-11-21T00:30:53;98985.97;;;5.23;100.00
70133;BME280;57495;49.922;7.966;2022-11-21T00:32:54;98978.03;;;5.23;100.00
70133;BME280;57495;49.922;7.966;2022-11-21T00:34:58;98972.03;;;5.21;100.00
70133;BME280;57495;49.922;7.966;2022-11-21T00:36:59;98979.28;;;5.29;100.00
70133;BME280;57495;49.922;7.966;2022-11-21T00:39:02;98981.13;;;5.29;100.00
70133;BME280;57495;49.922;7.966;2022-11-21T00:41:03;98980.84;;;5.32;100.00
70133;BME280;57495;49.922;7.966;2022-11-21T00:43:05;98978.47;;;5.29;100.00
70133;BME280;57495;49.922;7.966;2022-11-21T00:45:07;98978.75;;;5.26;100.00
70133;BME280;57495;49.922;7.966;2022-11-21T00:47:09;98979.88;;;5.33;100.00
70133;BME280;57495;49.922;7.966;2022-11-21T00:49:10;98970.38;;;5.30;100.00
70133;BME280;57495;49.922;7.966;2022-11-21T00:51:11;98970.25;;;5.32;100.00
70133;BME280;57495;49.922;7.966;2022-11-21T00:53:13;98972.09;;;5.41;100.00
70133;BME280;57495;49.922;7.966;2022-11-21T00:55:19;98969.88;;;5.46;100.00
70133;BME280;57495;49.922;7.966;2022-11-21T00:57:20;98977.09;;;5.44;100.00
70133;BME280;57495;49.922;7.966;2022-11-21T00:59:21;98976.38;;;5.32;100.00
70133;BME280;57495;49.922;7.966;2022-11-21T01:01:23;98958.66;;;5.33;100.00
70133;BME280;57495;49.922;7.966;2022-11-21T01:03:24;98965.41;;;5.37;100.00
70133;BME280;57495;49.922;7.966;2022-11-21T01:05:26;98963.13;;;5.22;100.00
70133;BME280;57495;49.922;7.966;2022-11-21T01:07:27;98964.94;;;5.32;100.00
70133;BME280;57495;49.922;7.966;2022-11-21T01:09:29;98961.16;;;5.15;100.00
70133;BME280;57495;49.922;7.966;2022-11-21T01:11:32;98955.78;;;5.05;100.00
70133;BME280;57495;49.922;7.966;2022-11-21T01:13:34;98955.56;;;5.18;100.00
70133;BME280;57495;49.922;7.966;2022-11-21T01:15:36;98960.00;;;5.08;100.00
70133;BME280;57495;49.922;7.966;2022-11-21T01:17:37;98952.44;;;5.03;100.00
70133;BME280;57495;49.922;7.966;2022-11-21T01:19:41;98955.88;;;4.94;100.00
70133;BME280;57495;49.922;7.966;2022-11-21T01:21:42;98944.72;;;4.90;100.00
70133;BME280;57495;49.922;7.966;2022-11-21T01:23:44;98946.97;;;4.95;100.00
70133;BME280;57495;49.922;7.966;2022-11-21T01:25:46;98943.50;;;4.94;100.00
70133;BME280;57495;49.922;7.966;2022-11-21T01:27:49;98944.78;;;5.00;100.00
70133;BME280;57495;49.922;7.966;2022-11-21T01:29:50;98949.41;;;5.08;100.00
70133;BME280;57495;49.922;7.966;2022-11-21T01:31:52;98948.03;;;5.13;100.00
70133;BME280;57495;49.922;7.966;2022-11-21T01:33:57;98945.25;;;5.25;100.00
70133;BME280;57495;49.922;7.966;2022-11-21T01:36:05;98945.25;;;5.25;100.00
70133;BME280;57495;49.922;7.966;2022-11-21T01:38:07;98949.31;;;5.29;100.00
70133;BME280;57495;49.922;7.966;2022-11-21T01:40:10;98948.63;;;5.27;100.00
70133;BME280;57495;49.922;7.966;2022-11-21T01:42:12;98950.44;;;5.26;100.00
70133;BME280;57495;49.922;7.966;2022-11-21T01:44:18;98950.81;;;5.21;100.00
70133;BME280;57495;49.922;7.966;2022-11-21T01:46:21;98954.47;;;5.20;100.00
70133;BME280;57495;49.922;7.966;2022-11-21T01:48:27;98946.91;;;5.16;100.00
70133;BME280;57495;49.922;7.966;2022-11-21T01:50:30;98951.53;;;5.23;100.00
70133;BME280;57495;49.922;7.966;2022-11-21T01:52:31;98949.88;;;5.22;100.00
70133;BME280;57495;49.922;7.966;2022-11-21T01:54:37;98949.16;;;5.20;100.00
70133;BME280;57495;49.922;7.966;2022-11-21T01:56:43;98953.94;;;5.36;100.00
70133;BME280;57495;49.922;7.966;2022-11-21T01:58:49;98952.84;;;5.39;100.00
70133;BME280;57495;49.922;7.966;2022-11-21T02:00:52;98952.59;;;5.52;100.00
70133;BME280;57495;49.922;7.966;2022-11-21T02:02:56;98949.75;;;5.53;100.00
70133;BME280;57495;49.922;7.966;2022-11-21T02:05:00;98941.13;;;5.51;100.00
70133;BME280;57495;49.922;7.966;2022-11-21T02:07:05;98948.09;;;5.52;100.00
70133;BME280;57495;49.922;7.966;2022-11-21T02:09:07;98950.88;;;5.51;100.00
70133;BME280;57495;49.922;7.966;2022-11-21T02:11:14;98949.06;;;5.51;100.00
70133;BME280;57495;49.922;7.966;2022-11-21T02:13:17;98961.50;;;5.41;100.00
70133;BME280;57495;49.922;7.966;2022-11-21T02:15:23;98951.41;;;5.35;100.00
70133;BME280;57495;49.922;7.966;2022-11-21T02:17:28;98948.06;;;5.33;100.00
70133;BME280;57495;49.922;7.966;2022-11-21T02:19:36;98940.53;;;5.28;100.00
70133;BME280;57495;49.922;7.966;2022-11-21T02:21:43;98947.66;;;5.28;100.00
70133;BME280;57495;49.922;7.966;2022-11-21T02:23:54;98946.41;;;5.32;100.00
70133;BME280;57495;49.922;7.966;2022-11-21T02:25:59;98947.66;;;5.37;100.00
70133;BME280;57495;49.922;7.966;2022-11-21T02:28:04;98950.19;;;5.39;100.00
70133;BME280;57495;49.922;7.966;2022-11-21T02:30:08;98939.00;;;5.35;100.00
70133;BME280;57495;49.922;7.966;2022-11-21T02:32:20;98936.06;;;5.29;100.00
70133;BME280;57495;49.922;7.966;2022-11-21T02:34:21;98938.00;;;5.27;100.00
70133;BME280;57495;49.922;7.966;2022-11-21T02:36:37;98941.22;;;5.20;100.00
70133;BME280;57495;49.922;7.966;2022-11-21T02:38:39;98938.25;;;5.14;100.00
70133;BME280;57495;49.922;7.966;2022-11-21T02:40:43;98931.56;;;5.10;100.00
70133;BME280;57495;49.922;7.966;2022-11-21T02:42:56;98933.53;;;5.17;100.00
70133;BME280;57495;49.922;7.966;2022-11-21T02:45:05;98936.44;;;5.14;100.00
70133;BME280;57495;49.922;7.966;2022-11-21T02:47:09;98932.13;;;5.13;100.00
70133;BME280;57495;49.922;7.966;2022-11-21T02:49:11;98930.88;;;5.17;100.00
70133;BME280;57495;49.922;7.966;2022-11-21T02:51:12;98933.53;;;5.17;100.00
70133;BME280;57495;49.922;7.966;2022-11-21T02:53:17;98936.03;;;5.19;100.00
70133;BME280;57495;49.922;7.966;2022-11-21T02:55:19;98929.91;;;5.18;100.00
70133;BME280;57495;49.922;7.966;2022-11-21T02:57:20;98938.50;;;5.11;100.00
70133;BME280;57495;49.922;7.966;2022-11-21T02:59:23;98935.47;;;5.15;100.00
70133;BME280;57495;49.922;7.966;2022-11-21T03:01:24;98944.38;;;5.14;100.00
70133;BME280;57495;49.922;7.966;2022-11-21T03:03:25;98932.56;;;5.18;100.00
70133;BME280;57495;49.922;7.966;2022-11-21T03:05:30;98947.59;;;5.08;100.00
70133;BME280;57495;49.922;7.966;2022-11-21T03:07:32;98939.38;;;5.11;100.00
70133;BME280;57495;49.922;7.966;2022-11-21T03:09:33;98943.88;;;5.20;100.00
70133;BME280;57495;49.922;7.966;2022-11-21T03:11:35;98946.34;;;5.12;100.00
70133;BME280;57495;49.922;7.966;2022-11-21T03:13:36;98943.88;;;5.20;100.00
70133;BME280;57495;49.922;7.966;2022-11-21T03:15:39;98947.91;;;5.15;100.00
70133;BME280;57495;49.922;7.966;2022-11-21T03:17:41;98951.91;;;5.09;100.00
70133;BME280;57495;49.922;7.966;2022-11-21T03:19:43;98952.19;;;5.06;100.00
70133;BME280;57495;49.922;7.966;2022-11-21T03:21:44;98953.88;;;5.07;100.00
70133;BME280;57495;49.922;7.966;2022-11-21T03:23:46;98961.97;;;5.15;100.00
70133;BME280;57495;49.922;7.966;2022-11-21T03:25:47;98963.03;;;5.03;100.00
70133;BME280;57495;49.922;7.966;2022-11-21T03:27:50;98960.50;;;5.01;100.00
70133;BME280;57495;49.922;7.966;2022-11-21T03:29:52;98957.59;;;5.04;100.00
70133;BME280;57495;49.922;7.966;2022-11-21T03:31:55;98956.53;;;5.07;100.00
70133;BME280;57495;49.922;7.966;2022-11-21T03:33:59;98963.34;;;5.10;100.00
70133;BME280;57495;49.922;7.966;2022-11-21T03:36:00;98956.94;;;5.12;100.00
70133;BME280;57495;49.922;7.966;2022-11-21T03:38:01;98958.75;;;5.12;100.00
70133;BME280;57495;49.922;7.966;2022-11-21T03:40:04;98958.88;;;5.10;100.00
70133;BME280;57495;49.922;7.966;2022-11-21T03:42:06;98952.88;;;5.08;100.00
70133;BME280;57495;49.922;7.966;2022-11-21T03:44:09;98956.94;;;5.12;100.00
70133;BME280;57495;49.922;7.966;2022-11-21T03:46:11;98953.00;;;5.07;100.00
70133;BME280;57495;49.922;7.966;2022-11-21T03:48:14;98966.13;;;5.08;100.00
70133;BME280;57495;49.922;7.966;2022-11-21T03:50:15;98958.63;;;5.13;100.00
70133;BME280;57495;49.922;7.966;2022-11-21T03:52:20;98958.50;;;5.15;100.00
70133;BME280;57495;49.922;7.966;2022-11-21T03:54:21;98952.63;;;5.11;100.00
70133;BME280;57495;49.922;7.966;2022-11-21T03:56:23;98951.38;;;5.15;100.00
70133;BME280;57495;49.922;7.966;2022-11-21T03:58:24;98962.09;;;5.14;100.00
70133;BME280;57495;49.922;7.966;2022-11-21T04:00:26;98962.53;;;5.09;100.00
70133;BME280;57495;49.922;7.966;2022-11-21T04:02:28;98961.41;;;5.12;100.00
70133;BME280;57495;49.922;7.966;2022-11-21T04:04:30;98956.44;;;5.28;100.00
70133;BME280;57495;49.922;7.966;2022-11-21T04:06:32;98959.34;;;5.25;100.00
70133;BME280;57495;49.922;7.966;2022-11-21T04:08:34;98958.66;;;5.33;100.00
70133;BME280;57495;49.922;7.966;2022-11-21T04:10:35;98956.16;;;5.31;100.00
70133;BME280;57495;49.922;7.966;2022-11-21T04:12:37;98955.88;;;5.25;100.00
70133;BME280;57495;49.922;7.966;2022-11-21T04:14:38;98950.56;;;5.25;100.00
70133;BME280;57495;49.922;7.966;2022-11-21T04:16:40;98950.00;;;5.31;100.00
70133;BME280;57495;49.922;7.966;2022-11-21T04:18:41;98959.47;;;5.23;100.00
70133;BME280;57495;49.922;7.966;2022-11-21T04:20:44;98961.16;;;5.25;100.00
70133;BME280;57495;49.922;7.966;2022-11-21T04:22:46;98954.91;;;5.26;100.00
70133;BME280;57495;49.922;7.966;2022-11-21T04:24:47;98958.41;;;5.36;100.00
70133;BME280;57495;49.922;7.966;2022-11-21T04:26:49;98957.69;;;5.34;100.00
70133;BME280;57495;49.922;7.966;2022-11-21T04:28:50;98956.00;;;5.33;100.00
70133;BME280;57495;49.922;7.966;2022-11-21T04:30:51;98953.34;;;5.33;100.00
70133;BME280;57495;49.922;7.966;2022-11-21T04:32:54;98953.78;;;5.28;100.00
70133;BME280;57495;49.922;7.966;2022-11-21T04:34:55;98957.56;;;5.26;100.00
70133;BME280;57495;49.922;7.966;2022-11-21T04:36:58;98949.44;;;5.27;100.00
70133;BME280;57495;49.922;7.966;2022-11-21T04:39:00;98957.25;;;5.29;100.00
70133;BME280;57495;49.922;7.966;2022-11-21T04:41:01;98955.59;;;5.28;100.00
70133;BME280;57495;49.922;7.966;2022-11-21T04:43:04;98957.25;;;5.29;100.00
70133;BME280;57495;49.922;7.966;2022-11-21T04:45:06;98959.91;;;5.29;100.00
70133;BME280;57495;49.922;7.966;2022-11-21T04:47:07;98962.44;;;5.30;100.00
70133;BME280;57495;49.922;7.966;2022-11-21T04:49:09;98955.31;;;5.31;100.00
70133;BME280;57495;49.922;7.966;2022-11-21T04:51:11;98959.78;;;5.30;100.00
70133;BME280;57495;49.922;7.966;2022-11-21T04:53:13;98963.69;;;5.36;100.00
70133;BME280;57495;49.922;7.966;2022-11-21T04:55:15;98963.69;;;5.36;100.00
70133;BME280;57495;49.922;7.966;2022-11-21T04:57:17;98957.84;;;5.42;100.00
70133;BME280;57495;49.922;7.966;2022-11-21T04:59:19;98969.88;;;5.46;100.00
70133;BME280;57495;49.922;7.966;2022-11-21T05:01:20;98971.53;;;5.47;100.00
70133;BME280;57495;49.922;7.966;2022-11-21T05:03:22;98970.72;;;5.47;100.00
70133;BME280;57495;49.922;7.966;2022-11-21T05:05:23;98973.50;;;5.45;100.00
70133;BME280;57495;49.922;7.966;2022-11-21T05:07:25;98971.28;;;5.50;100.00
70133;BME280;57495;49.922;7.966;2022-11-21T05:09:27;98977.28;;;5.52;100.00
70133;BME280;57495;49.922;7.966;2022-11-21T05:11:29;98970.56;;;5.48;100.00
70133;BME280;57495;49.922;7.966;2022-11-21T05:13:48;98974.63;;;5.42;100.00
70133;BME280;57495;49.922;7.966;2022-11-21T05:15:55;98973.59;;;5.34;100.00
70133;BME280;57495;49.922;7.966;2022-11-21T05:17:57;98965.66;;;5.34;100.00
70133;BME280;57495;49.922;7.966;2022-11-21T05:19:59;98961.75;;;5.38;100.00
70133;BME280;57495;49.922;7.966;2022-11-21T05:22:00;98961.59;;;5.30;100.00
70133;BME280;57495;49.922;7.966;2022-11-21T05:24:02;98957.56;;;5.26;100.00
70133;BME280;57495;49.922;7.966;2022-11-21T05:26:05;98956.69;;;5.25;100.00
70133;BME280;57495;49.922;7.966;2022-11-21T05:28:06;98959.22;;;5.27;100.00
70133;BME280;57495;49.922;7.966;2022-11-21T05:30:10;98959.22;;;5.27;100.00
70133;BME280;57495;49.922;7.966;2022-11-21T05:32:11;98956.56;;;5.27;100.00
70133;BME280;57495;49.922;7.966;2022-11-21T05:34:13;98957.56;;;5.26;100.00
70133;BME280;57495;49.922;7.966;2022-11-21T05:36:14;98958.06;;;5.19;100.00
70133;BME280;57495;49.922;7.966;2022-11-21T05:38:16;98947.47;;;5.19;100.00
70133;BME280;57495;49.922;7.966;2022-11-21T05:40:17;98953.59;;;5.10;100.00
70133;BME280;57495;49.922;7.966;2022-11-21T05:42:20;98960.28;;;5.14;100.00
70133;BME280;57495;49.922;7.966;2022-11-21T05:44:42;98955.41;;;5.19;100.00
70133;BME280;57495;49.922;7.966;2022-11-21T05:46:42;98956.66;;;5.15;100.00
70133;BME280;57495;49.922;7.966;2022-11-21T05:48:45;98958.50;;;5.25;100.00
70133;BME280;57495;49.922;7.966;2022-11-21T05:50:47;98952.19;;;5.06;100.00
70133;BME280;57495;49.922;7.966;2022-11-21T05:52:49;98953.31;;;5.03;100.00
70133;BME280;57495;49.922;7.966;2022-11-21T05:54:51;98951.22;;;5.07;100.00
70133;BME280;57495;49.922;7.966;2022-11-21T05:56:52;98959.25;;;4.96;100.00
70133;BME280;57495;49.922;7.966;2022-11-21T05:58:58;98962.19;;;4.93;100.00
70133;BME280;57495;49.922;7.966;2022-11-21T06:00:59;98963.25;;;4.90;100.00
70133;BME280;57495;49.922;7.966;2022-11-21T06:03:01;98959.53;;;4.93;100.00
70133;BME280;57495;49.922;7.966;2022-11-21T06:05:20;98965.78;;;4.92;100.00
70133;BME280;57495;49.922;7.966;2022-11-21T06:07:22;98975.50;;;4.81;100.00
70133;BME280;57495;49.922;7.966;2022-11-21T06:09:23;98971.22;;;4.90;100.00
70133;BME280;57495;49.922;7.966;2022-11-21T06:11:25;98968.31;;;4.93;100.00
70133;BME280;57495;49.922;7.966;2022-11-21T06:13:27;98972.06;;;4.91;100.00
70133;BME280;57495;49.922;7.966;2022-11-21T06:15:30;98967.19;;;4.96;100.00
70133;BME280;57495;49.922;7.966;2022-11-21T06:17:31;98967.19;;;4.96;100.00
70133;BME280;57495;49.922;7.966;2022-11-21T06:19:33;98968.88;;;4.97;100.00
70133;BME280;57495;49.922;7.966;2022-11-21T06:21:34;98962.78;;;5.06;100.00
70133;BME280;57495;49.922;7.966;2022-11-21T06:23:36;98961.09;;;5.05;100.00
70133;BME280;57495;49.922;7.966;2022-11-21T06:25:38;98968.63;;;5.00;100.00
70133;BME280;57495;49.922;7.966;2022-11-21T06:27:39;98960.81;;;4.98;100.00
70133;BME280;57495;49.922;7.966;2022-11-21T06:29:41;98958.97;;;4.99;100.00
70133;BME280;57495;49.922;7.966;2022-11-21T06:31:44;98956.88;;;4.93;100.00
70133;BME280;57495;49.922;7.966;2022-11-21T06:33:46;98960.22;;;4.95;100.00
70133;BME280;57495;49.922;7.966;2022-11-21T06:35:48;98958.81;;;4.91;100.00
70133;BME280;57495;49.922;7.966;2022-11-21T06:37:49;98961.84;;;4.86;100.00
70133;BME280;57495;49.922;7.966;2022-11-21T06:39:54;98962.44;;;4.90;100.00
70133;BME280;57495;49.922;7.966;2022-11-21T06:41:55;98959.66;;;4.91;100.00
70133;BME280;57495;49.922;7.966;2022-11-21T06:43:58;98956.88;;;4.93;100.00
70133;BME280;57495;49.922;7.966;2022-11-21T06:46:01;98964.41;;;4.97;100.00
70133;BME280;57495;49.922;7.966;2022-11-21T06:48:05;98960.38;;;5.03;100.00
70133;BME280;57495;49.922;7.966;2022-11-21T06:50:07;98955.53;;;5.08;100.00
70133;BME280;57495;49.922;7.966;2022-11-21T06:52:09;98963.09;;;5.13;100.00
70133;BME280;57495;49.922;7.966;2022-11-21T06:54:10;98960.03;;;5.17;100.00
70133;BME280;57495;49.922;7.966;2022-11-21T06:56:13;98952.19;;;5.06;100.00
70133;BME280;57495;49.922;7.966;2022-11-21T06:58:15;98947.84;;;5.05;100.00
70133;BME280;57495;49.922;7.966;2022-11-21T07:00:17;98942.81;;;5.02;100.00
70133;BME280;57495;49.922;7.966;2022-11-21T07:02:20;98950.50;;;5.05;100.00
70133;BME280;57495;49.922;7.966;2022-11-21T07:04:22;98944.06;;;4.98;100.00
70133;BME280;57495;49.922;7.966;2022-11-21T07:06:24;98945.84;;;4.88;100.00
70133;BME280;57495;49.922;7.966;2022-11-21T07:08:26;98948.47;;;4.88;100.00
70133;BME280;57495;49.922;7.966;2022-11-21T07:10:29;98942.03;;;4.80;100.00
70133;BME280;57495;49.922;7.966;2022-11-21T07:12:30;98948.44;;;4.78;100.00
70133;BME280;57495;49.922;7.966;2022-11-21T07:14:49;98957.06;;;4.70;100.00
70133;BME280;57495;49.922;7.966;2022-11-21T07:16:51;98959.84;;;4.69;100.00
70133;BME280;57495;49.922;7.966;2022-11-21T07:18:52;98964.47;;;4.76;100.00
70133;BME280;57495;49.922;7.966;2022-11-21T07:20:58;98965.50;;;4.64;100.00
70133;BME280;57495;49.922;7.966;2022-11-21T07:22:59;98968.16;;;4.64;100.00
70133;BME280;57495;49.922;7.966;2022-11-21T07:25:01;98972.50;;;4.65;100.00
70133;BME280;57495;49.922;7.966;2022-11-21T07:27:03;98975.03;;;4.67;100.00
70133;BME280;57495;49.922;7.966;2022-11-21T07:29:05;98980.69;;;4.62;100.00
70133;BME280;57495;49.922;7.966;2022-11-21T07:31:08;98981.84;;;4.69;100.00
70133;BME280;57495;49.922;7.966;2022-11-21T07:33:10;98980.47;;;4.75;100.00
70133;BME280;57495;49.922;7.966;2022-11-21T07:35:12;98988.38;;;4.65;100.00
70133;BME280;57495;49.922;7.966;2022-11-21T07:37:14;98987.97;;;4.70;100.00
70133;BME280;57495;49.922;7.966;2022-11-21T07:39:16;98991.75;;;4.67;100.00
70133;BME280;57495;49.922;7.966;2022-11-21T07:41:17;98987.16;;;4.69;100.00
70133;BME280;57495;49.922;7.966;2022-11-21T07:43:19;98991.66;;;4.78;100.00
70133;BME280;57495;49.922;7.966;2022-11-21T07:45:20;98990.75;;;4.89;100.00
70133;BME280;57495;49.922;7.966;2022-11-21T07:47:22;98981.69;;;4.92;100.00
70133;BME280;57495;49.922;7.966;2022-11-21T07:49:23;98986.50;;;5.08;100.00
70133;BME280;57495;49.922;7.966;2022-11-21T07:51:25;98983.72;;;5.09;100.00
70133;BME280;57495;49.922;7.966;2022-11-21T07:53:28;98978.69;;;5.16;100.00
70133;BME280;57495;49.922;7.966;2022-11-21T07:55:30;98978.75;;;5.26;100.00
70133;BME280;57495;49.922;7.966;2022-11-21T07:57:31;98974.31;;;5.36;100.00
70133;BME280;57495;49.922;7.966;2022-11-21T07:59:33;98984.34;;;5.42;100.00
70133;BME280;57495;49.922;7.966;2022-11-21T08:01:34;98970.72;;;5.47;100.00
70133;BME280;57495;49.922;7.966;2022-11-21T08:03:36;98975.75;;;5.50;100.00
70133;BME280;57495;49.922;7.966;2022-11-21T08:05:38;98974.63;;;5.52;100.00
70133;BME280;57495;49.922;7.966;2022-11-21T08:07:40;98976.28;;;5.53;100.00
70133;BME280;57495;49.922;7.966;2022-11-21T08:09:43;98968.75;;;5.58;100.00
70133;BME280;57495;49.922;7.966;2022-11-21T08:11:44;98972.81;;;5.53;100.00
70133;BME280;57495;49.922;7.966;2022-11-21T08:13:46;98973.94;;;5.50;100.00
70133;BME280;57495;49.922;7.966;2022-11-21T08:15:47;98970.03;;;5.54;100.00
70133;BME280;57495;49.922;7.966;2022-11-21T08:17:49;98967.50;;;5.62;100.00
70133;BME280;57495;49.922;7.966;2022-11-21T08:19:50;98981.06;;;5.59;100.00
70133;BME280;57495;49.922;7.966;2022-11-21T08:21:52;98979.38;;;5.58;100.00
70133;BME280;57495;49.922;7.966;2022-11-21T08:23:53;98982.16;;;5.57;100.00
70133;BME280;57495;49.922;7.966;2022-11-21T08:25:56;98987.19;;;5.60;100.00
70133;BME280;57495;49.922;7.966;2022-11-21T08:28:00;98982.59;;;5.62;100.00
70133;BME280;57495;49.922;7.966;2022-11-21T08:30:04;98974.50;;;5.64;100.00
70133;BME280;57495;49.922;7.966;2022-11-21T08:32:06;98970.59;;;5.68;100.00
70133;BME280;57495;49.922;7.966;2022-11-21T08:34:07;98976.59;;;5.70;100.00
70133;BME280;57495;49.922;7.966;2022-11-21T08:36:09;98975.63;;;5.71;100.00
70133;BME280;57495;49.922;7.966;2022-11-21T08:38:11;98984.41;;;5.71;100.00
70133;BME280;57495;49.922;7.966;2022-11-21T08:40:13;98979.81;;;5.73;98.25
70133;BME280;57495;49.922;7.966;2022-11-21T08:42:16;98974.38;;;5.75;98.40
70133;BME280;57495;49.922;7.966;2022-11-21T08:44:16;98971.59;;;5.76;97.04
70133;BME280;57495;49.922;7.966;2022-11-21T08:46:18;98974.66;;;5.81;97.28
70133;BME280;57495;49.922;7.966;2022-11-21T08:48:26;98972.97;;;5.80;97.23
70133;BME280;57495;49.922;7.966;2022-11-21T08:50:27;98965.16;;;5.79;96.32
70133;BME280;57495;49.922;7.966;2022-11-21T08:52:29;98960.72;;;5.79;98.20
70133;BME280;57495;49.922;7.966;2022-11-21T08:54:30;98968.50;;;5.81;96.06
70133;BME280;57495;49.922;7.966;2022-11-21T08:56:32;98964.03;;;5.72;95.90
70133;BME280;57495;49.922;7.966;2022-11-21T08:58:35;98956.06;;;5.72;94.83
70133;BME280;57495;49.922;7.966;2022-11-21T09:00:36;98948.69;;;5.66;95.79
70133;BME280;57495;49.922;7.966;2022-11-21T09:02:38;98950.19;;;5.58;96.33
70133;BME280;57495;49.922;7.966;2022-11-21T09:04:40;98946.47;;;5.71;96.44
70133;BME280;57495;49.922;7.966;2022-11-21T09:06:41;98956.38;;;5.88;95.62
70133;BME280;57495;49.922;7.966;2022-11-21T09:08:43;98960.28;;;5.84;95.77
70133;BME280;57495;49.922;7.966;2022-11-21T09:10:44;98955.81;;;5.75;94.16
70133;BME280;57495;49.922;7.966;2022-11-21T09:12:46;98957.06;;;5.71;94.69
70133;BME280;57495;49.922;7.966;2022-11-21T09:14:49;98961.25;;;5.73;95.84
70133;BME280;57495;49.922;7.966;2022-11-21T09:17:11;98957.22;;;6.18;93.85
70133;BME280;57495;49.922;7.966;2022-11-21T09:19:31;98959.03;;;6.37;93.49
70133;BME280;57495;49.922;7.966;2022-11-21T09:21:32;98955.22;;;6.59;92.33
70133;BME280;57495;49.922;7.966;2022-11-21T09:23:34;98957.69;;;6.61;91.53
70133;BME280;57495;49.922;7.966;2022-11-21T09:25:35;98961.16;;;6.81;91.25
70133;BME280;57495;49.922;7.966;2022-11-21T09:27:37;98951.81;;;7.04;89.41
70133;BME280;57495;49.922;7.966;2022-11-21T09:29:38;98949.09;;;6.96;86.98
70133;BME280;57495;49.922;7.966;2022-11-21T09:31:41;98944.53;;;7.06;86.98
70133;BME280;57495;49.922;7.966;2022-11-21T09:33:43;98942.16;;;7.31;89.07
70133;BME280;57495;49.922;7.966;2022-11-21T09:35:45;98939.50;;;7.31;86.71
70133;BME280;57495;49.922;7.966;2022-11-21T09:37:46;98928.50;;;7.26;84.57
70133;BME280;57495;49.922;7.966;2022-11-21T09:39:48;98921.53;;;7.43;85.98
70133;BME280;57495;49.922;7.966;2022-11-21T09:41:57;98914.69;;;7.40;86.09
70133;BME280;57495;49.922;7.966;2022-11-21T09:44:08;98912.81;;;7.50;86.15
70133;BME280;57495;49.922;7.966;2022-11-21T09:46:15;98915.63;;;7.67;85.09
70133;BME280;57495;49.922;7.966;2022-11-21T09:48:21;98916.53;;;7.58;83.74
70133;BME280;57495;49.922;7.966;2022-11-21T09:50:30;98920.09;;;7.48;83.67
70133;BME280;57495;49.922;7.966;2022-11-21T09:52:38;98920.78;;;7.50;83.39
70133;BME280;57495;49.922;7.966;2022-11-21T09:54:46;98920.78;;;7.50;83.29
70133;BME280;57495;49.922;7.966;2022-11-21T09:56:50;98917.84;;;7.53;82.32
70133;BME280;57495;49.922;7.966;2022-11-21T09:59:05;98915.06;;;7.45;83.89
70133;BME280;57495;49.922;7.966;2022-11-21T10:01:11;98912.72;;;7.42;83.23
70133;BME280;57495;49.922;7.966;2022-11-21T10:03:13;98915.34;;;7.24;84.18
70133;BME280;57495;49.922;7.966;2022-11-21T10:05:16;98906.50;;;7.51;84.04
70133;BME280;57495;49.922;7.966;2022-11-21T10:07:21;98910.25;;;7.31;82.68
70133;BME280;57495;49.922;7.966;2022-11-21T10:09:33;98910.72;;;7.26;82.47
70133;BME280;57495;49.922;7.966;2022-11-21T10:11:42;98912.03;;;7.12;83.51
70133;BME280;57495;49.922;7.966;2022-11-21T10:14:09;98900.41;;;7.41;84.28
70133;BME280;57495;49.922;7.966;2022-11-21T10:16:25;98907.47;;;7.50;83.40
70133;BME280;57495;49.922;7.966;2022-11-21T10:18:42;98914.47;;;7.69;82.79
70133;BME280;57495;49.922;7.966;2022-11-21T10:20:53;98911.75;;;7.61;82.25
70133;BME280;57495;49.922;7.966;2022-11-21T10:23:18;98903.78;;;7.79;81.82
70133;BME280;57495;49.922;7.966;2022-11-21T10:25:27;98895.41;;;7.74;79.89
70133;BME280;57495;49.922;7.966;2022-11-21T10:27:33;98895.78;;;7.79;81.24
70133;BME280;57495;49.922;7.966;2022-11-21T10:29:38;98884.63;;;7.58;82.95
70133;BME280;57495;49.922;7.966;2022-11-21T10:31:42;98880.75;;;7.70;80.58
70133;BME280;57495;49.922;7.966;2022-11-21T10:33:44;98875.84;;;7.83;81.55
70133;BME280;57495;49.922;7.966;2022-11-21T10:35:48;98873.88;;;7.85;79.77
70133;BME280;57495;49.922;7.966;2022-11-21T10:37:55;98879.44;;;7.56;80.65
70133;BME280;57495;49.922;7.966;2022-11-21T10:40:07;98877.44;;;7.22;81.71
70133;BME280;57495;49.922;7.966;2022-11-21T10:42:20;98877.34;;;7.14;83.47
70133;BME280;57495;49.922;7.966;2022-11-21T10:44:30;98870.38;;;7.13;82.39
70133;BME280;57495;49.922;7.966;2022-11-21T10:46:54;98863.28;;;7.22;82.36
70133;BME280;57495;49.922;7.966;2022-11-21T10:48:58;98869.28;;;7.06;82.13
70133;BME280;57495;49.922;7.966;2022-11-21T10:51:10;98861.53;;;6.94;83.19
70133;BME280;57495;49.922;7.966;2022-11-21T10:53:20;98851.72;;;6.95;83.15
70133;BME280;57495;49.922;7.966;2022-11-21T10:55:56;98858.31;;;6.91;84.84